sensor_id;sensor_type;location;lat;lon;timestamp;pressure;altitude;pressure_sealevel;temperature;humidity
6942;BME280;3510;43.200;27.920;2023-08-20T00:01:43;101044.41;;;27.82;48.89
6942;BME280;3510;43.200;27.920;2023-08-20T00:04:09;101049.28;;;27.67;49.51
6942;BME280;3510;43.200;27.920;2023-08-20T00:06:38;101051.69;;;27.58;49.43
6942;BME280;3510;43.200;27.920;2023-08-20T00:09:08;101044.72;;;27.54;49.87
6942;BME280;3510;43.200;27.920;2023-08-20T00:11:34;101052.13;;;27.35;50.58
6942;BME280;3510;43.200;27.920;2023-08-20T00:14:03;101048.22;;;27.12;51.18
6942;BME280;3510;43.200;27.920;2023-08-20T00:16:30;101054.13;;;27.08;51.24
6942;BME280;3510;43.200;27.920;2023-08-20T00:18:57;101052.38;;;27.07;51.15
6942;BME280;3510;43.200;27.920;2023-08-20T00:21:24;101058.38;;;27.04;51.35
6942;BME280;3510;43.200;27.920;2023-08-20T00:23:55;101051.44;;;27.03;51.37
6942;BME280;3510;43.200;27.920;2023-08-20T00:26:24;101049.31;;;26.84;52.16
6942;BME280;3510;43.200;27.920;2023-08-20T00:28:51;101047.38;;;27.13;51.54
6942;BME280;3510;43.200;27.920;2023-08-20T00:31:31;101047.13;;;27.02;52.16
6942;BME280;3510;43.200;27.920;2023-08-20T00:33:58;101048.50;;;26.86;53.40
6942;BME280;3510;43.200;27.920;2023-08-20T00:36:30;101047.41;;;26.75;54.00
6942;BME280;3510;43.200;27.920;2023-08-20T00:44:36;101051.09;;;26.86;53.46
6942;BME280;3510;43.200;27.920;2023-08-20T00:47:04;101052.25;;;26.60;54.37
6942;BME280;3510;43.200;27.920;2023-08-20T00:49:44;101051.72;;;26.74;54.26
6942;BME280;3510;43.200;27.920;2023-08-20T00:52:25;101048.09;;;26.66;54.11
6942;BME280;3510;43.200;27.920;2023-08-20T00:54:54;101050.53;;;26.60;54.48
6942;BME280;3510;43.200;27.920;2023-08-20T00:57:34;101049.44;;;26.50;55.42
6942;BME280;3510;43.200;27.920;2023-08-20T01:00:17;101051.28;;;26.56;54.65
6942;BME280;3510;43.200;27.920;2023-08-20T01:02:51;101043.56;;;26.56;54.81
6942;BME280;3510;43.200;27.920;2023-08-20T01:05:21;101049.03;;;26.70;54.33
6942;BME280;3510;43.200;27.920;2023-08-20T01:07:57;101053.19;;;26.63;54.02
6942;BME280;3510;43.200;27.920;2023-08-20T01:10:29;101047.94;;;26.60;53.56
6942;BME280;3510;43.200;27.920;2023-08-20T01:18:18;101056.53;;;26.59;53.78
6942;BME280;3510;43.200;27.920;2023-08-20T01:20:46;101051.47;;;26.64;54.02
6942;BME280;3510;43.200;27.920;2023-08-20T01:23:24;101050.47;;;26.59;54.05
6942;BME280;3510;43.200;27.920;2023-08-20T01:26:18;101046.84;;;26.50;54.03
6942;BME280;3510;43.200;27.920;2023-08-20T01:28:49;101050.06;;;26.42;54.29
6942;BME280;3510;43.200;27.920;2023-08-20T01:31:29;101048.34;;;26.42;54.31
6942;BME280;3510;43.200;27.920;2023-08-20T01:34:10;101050.94;;;26.42;54.18
6942;BME280;3510;43.200;27.920;2023-08-20T01:39:19;101048.19;;;26.35;54.36
6942;BME280;3510;43.200;27.920;2023-08-20T01:41:59;101048.09;;;26.31;53.86
6942;BME280;3510;43.200;27.920;2023-08-20T01:50:25;101042.84;;;26.28;54.08
6942;BME280;3510;43.200;27.920;2023-08-20T01:53:06;101047.38;;;26.37;53.86
6942;BME280;3510;43.200;27.920;2023-08-20T01:55:46;101050.88;;;26.04;55.31
6942;BME280;3510;43.200;27.920;2023-08-20T01:58:25;101042.06;;;26.31;54.94
6942;BME280;3510;43.200;27.920;2023-08-20T02:01:03;101047.25;;;26.33;55.11
6942;BME280;3510;43.200;27.920;2023-08-20T02:03:43;101033.88;;;26.11;55.89
6942;BME280;3510;43.200;27.920;2023-08-20T02:15:11;101027.75;;;26.08;55.65
6942;BME280;3510;43.200;27.920;2023-08-20T02:17:51;101029.47;;;26.07;55.61
6942;BME280;3510;43.200;27.920;2023-08-20T02:20:22;101034.66;;;26.09;55.55
6942;BME280;3510;43.200;27.920;2023-08-20T02:23:02;101028.63;;;26.08;55.62
6942;BME280;3510;43.200;27.920;2023-08-20T02:25:39;101038.78;;;26.02;55.57
6942;BME280;3510;43.200;27.920;2023-08-20T02:28:09;101035.03;;;25.89;56.16
6942;BME280;3510;43.200;27.920;2023-08-20T02:30:46;101041.66;;;25.79;55.98
6942;BME280;3510;43.200;27.920;2023-08-20T02:33:14;101039.13;;;25.81;55.83
6942;BME280;3510;43.200;27.920;2023-08-20T02:35:54;101047.38;;;25.69;56.09
6942;BME280;3510;43.200;27.920;2023-08-20T02:38:24;101046.22;;;25.90;56.23
6942;BME280;3510;43.200;27.920;2023-08-20T02:40:53;101048.25;;;25.70;56.70
6942;BME280;3510;43.200;27.920;2023-08-20T03:07:58;101059.97;;;25.27;59.00
6942;BME280;3510;43.200;27.920;2023-08-20T03:10:26;101052.91;;;25.21;59.19
6942;BME280;3510;43.200;27.920;2023-08-20T03:12:54;101056.19;;;25.14;59.66
6942;BME280;3510;43.200;27.920;2023-08-20T03:15:23;101051.84;;;25.13;60.31
6942;BME280;3510;43.200;27.920;2023-08-20T03:17:51;101058.56;;;25.09;60.16
6942;BME280;3510;43.200;27.920;2023-08-20T03:20:18;101046.31;;;25.01;60.61
6942;BME280;3510;43.200;27.920;2023-08-20T03:23:00;101048.16;;;25.06;60.83
6942;BME280;3510;43.200;27.920;2023-08-20T03:25:27;101051.09;;;25.17;60.53
6942;BME280;3510;43.200;27.920;2023-08-20T03:27:53;101049.94;;;25.07;60.36
6942;BME280;3510;43.200;27.920;2023-08-20T03:30:19;101055.47;;;25.20;60.17
6942;BME280;3510;43.200;27.920;2023-08-20T03:32:46;101059.88;;;25.24;60.01
6942;BME280;3510;43.200;27.920;2023-08-20T03:35:12;101054.94;;;25.31;60.39
6942;BME280;3510;43.200;27.920;2023-08-20T03:37:39;101056.75;;;25.35;60.29
6942;BME280;3510;43.200;27.920;2023-08-20T03:40:07;101058.31;;;25.29;60.87
6942;BME280;3510;43.200;27.920;2023-08-20T03:42:34;101056.34;;;25.20;60.38
6942;BME280;3510;43.200;27.920;2023-08-20T03:45:01;101037.66;;;25.27;60.50
6942;BME280;3510;43.200;27.920;2023-08-20T03:47:28;101052.47;;;25.36;59.93
6942;BME280;3510;43.200;27.920;2023-08-20T03:49:54;101050.09;;;25.42;59.60
6942;BME280;3510;43.200;27.920;2023-08-20T03:52:21;101053.84;;;25.23;60.09
6942;BME280;3510;43.200;27.920;2023-08-20T03:54:47;101050.28;;;25.50;59.40
6942;BME280;3510;43.200;27.920;2023-08-20T03:57:17;101054.06;;;25.31;59.38
6942;BME280;3510;43.200;27.920;2023-08-20T03:59:44;101052.38;;;25.63;58.72
6942;BME280;3510;43.200;27.920;2023-08-20T04:02:11;101054.16;;;25.66;58.91
6942;BME280;3510;43.200;27.920;2023-08-20T04:04:38;101052.69;;;25.75;58.27
6942;BME280;3510;43.200;27.920;2023-08-20T04:07:04;101053.69;;;25.79;57.60
6942;BME280;3510;43.200;27.920;2023-08-20T04:09:32;101049.25;;;25.75;57.57
6942;BME280;3510;43.200;27.920;2023-08-20T04:11:59;101043.91;;;25.69;57.79
6942;BME280;3510;43.200;27.920;2023-08-20T04:14:27;101049.91;;;25.68;58.65
6942;BME280;3510;43.200;27.920;2023-08-20T04:16:54;101049.53;;;25.54;58.86
6942;BME280;3510;43.200;27.920;2023-08-20T04:19:20;101041.91;;;25.58;58.46
6942;BME280;3510;43.200;27.920;2023-08-20T04:21:47;101047.84;;;25.86;57.67
6942;BME280;3510;43.200;27.920;2023-08-20T04:24:27;101048.97;;;25.96;57.00
6942;BME280;3510;43.200;27.920;2023-08-20T04:26:54;101036.56;;;25.81;57.05
6942;BME280;3510;43.200;27.920;2023-08-20T04:29:20;101039.91;;;26.13;56.51
6942;BME280;3510;43.200;27.920;2023-08-20T04:31:48;101047.03;;;26.22;56.06
6942;BME280;3510;43.200;27.920;2023-08-20T04:34:15;101048.41;;;26.09;56.22
6942;BME280;3510;43.200;27.920;2023-08-20T04:36:42;101047.38;;;26.37;55.52
6942;BME280;3510;43.200;27.920;2023-08-20T04:39:09;101046.63;;;26.43;54.56
6942;BME280;3510;43.200;27.920;2023-08-20T04:41:36;101042.31;;;26.42;54.74
6942;BME280;3510;43.200;27.920;2023-08-20T04:44:03;101051.81;;;26.43;54.95
6942;BME280;3510;43.200;27.920;2023-08-20T04:46:29;101050.16;;;26.45;54.75
6942;BME280;3510;43.200;27.920;2023-08-20T04:48:57;101055.84;;;26.66;54.02
6942;BME280;3510;43.200;27.920;2023-08-20T04:51:24;101044.66;;;26.67;53.85
6942;BME280;3510;43.200;27.920;2023-08-20T04:53:51;101054.47;;;26.82;52.97
6942;BME280;3510;43.200;27.920;2023-08-20T04:56:18;101055.31;;;26.81;52.81
6942;BME280;3510;43.200;27.920;2023-08-20T04:58:44;101065.25;;;27.03;52.28
6942;BME280;3510;43.200;27.920;2023-08-20T05:01:11;101052.09;;;27.34;50.87
6942;BME280;3510;43.200;27.920;2023-08-20T05:03:37;101047.50;;;27.64;49.75
6942;BME280;3510;43.200;27.920;2023-08-20T05:06:05;101051.53;;;27.95;49.63
6942;BME280;3510;43.200;27.920;2023-08-20T05:08:32;101052.91;;;27.75;50.08
6942;BME280;3510;43.200;27.920;2023-08-20T05:10:59;101050.03;;;27.61;50.99
6942;BME280;3510;43.200;27.920;2023-08-20T05:13:26;101042.13;;;27.54;50.59
6942;BME280;3510;43.200;27.920;2023-08-20T05:15:53;101042.81;;;27.90;49.86
6942;BME280;3510;43.200;27.920;2023-08-20T05:18:19;101053.22;;;27.93;49.44
6942;BME280;3510;43.200;27.920;2023-08-20T05:20:46;101046.75;;;28.18;48.27
6942;BME280;3510;43.200;27.920;2023-08-20T05:26:23;101038.81;;;28.65;47.29
6942;BME280;3510;43.200;27.920;2023-08-20T05:29:03;101018.59;;;29.02;46.22
6942;BME280;3510;43.200;27.920;2023-08-20T05:31:44;101014.56;;;29.29;45.54
6942;BME280;3510;43.200;27.920;2023-08-20T05:34:25;101028.81;;;29.63;44.69
6942;BME280;3510;43.200;27.920;2023-08-20T05:37:06;101024.72;;;29.91;44.23
6942;BME280;3510;43.200;27.920;2023-08-20T05:39:36;101034.50;;;30.21;43.58
6942;BME280;3510;43.200;27.920;2023-08-20T05:54:59;101037.38;;;30.69;42.75
6942;BME280;3510;43.200;27.920;2023-08-20T05:57:26;100994.91;;;30.62;41.66
6942;BME280;3510;43.200;27.920;2023-08-20T05:59:59;101020.22;;;30.94;41.71
6942;BME280;3510;43.200;27.920;2023-08-20T06:02:25;101001.16;;;30.99;41.34
6942;BME280;3510;43.200;27.920;2023-08-20T06:04:52;101025.47;;;31.18;40.74
6942;BME280;3510;43.200;27.920;2023-08-20T06:07:21;101022.09;;;31.36;40.19
6942;BME280;3510;43.200;27.920;2023-08-20T06:09:47;101023.88;;;31.69;39.42
6942;BME280;3510;43.200;27.920;2023-08-20T06:12:17;100977.84;;;31.36;39.56
6942;BME280;3510;43.200;27.920;2023-08-20T06:14:44;101024.78;;;31.90;39.21
6942;BME280;3510;43.200;27.920;2023-08-20T06:17:11;101023.84;;;31.55;39.53
6942;BME280;3510;43.200;27.920;2023-08-20T06:19:38;101029.06;;;31.62;39.25
6942;BME280;3510;43.200;27.920;2023-08-20T06:22:05;101029.94;;;31.85;39.04
6942;BME280;3510;43.200;27.920;2023-08-20T06:24:32;100991.78;;;31.78;38.97
6942;BME280;3510;43.200;27.920;2023-08-20T06:26:59;101014.31;;;31.85;39.32
6942;BME280;3510;43.200;27.920;2023-08-20T06:29:27;100977.88;;;31.61;39.03
6942;BME280;3510;43.200;27.920;2023-08-20T06:31:54;101023.03;;;31.99;38.71
6942;BME280;3510;43.200;27.920;2023-08-20T06:34:21;101021.28;;;32.23;37.98
6942;BME280;3510;43.200;27.920;2023-08-20T06:36:48;101028.22;;;32.42;37.54
6942;BME280;3510;43.200;27.920;2023-08-20T06:39:15;101029.84;;;32.74;36.98
6942;BME280;3510;43.200;27.920;2023-08-20T06:41:56;101034.25;;;32.67;36.88
6942;BME280;3510;43.200;27.920;2023-08-20T06:44:22;101021.16;;;32.73;37.09
6942;BME280;3510;43.200;27.920;2023-08-20T06:46:52;101011.44;;;33.20;35.71
6942;BME280;3510;43.200;27.920;2023-08-20T06:49:18;101028.97;;;32.86;36.49
6942;BME280;3510;43.200;27.920;2023-08-20T06:51:45;101015.78;;;33.15;36.07
6942;BME280;3510;43.200;27.920;2023-08-20T06:54:12;101013.91;;;33.41;34.02
6942;BME280;3510;43.200;27.920;2023-08-20T06:56:42;101008.47;;;33.72;34.67
6942;BME280;3510;43.200;27.920;2023-08-20T06:59:09;101005.84;;;33.73;34.82
6942;BME280;3510;43.200;27.920;2023-08-20T07:01:36;100964.16;;;33.61;33.65
6942;BME280;3510;43.200;27.920;2023-08-20T07:04:05;101014.50;;;33.80;32.99
6942;BME280;3510;43.200;27.920;2023-08-20T07:06:32;100981.31;;;33.91;33.06
6942;BME280;3510;43.200;27.920;2023-08-20T07:08:59;101005.44;;;34.21;32.69
6942;BME280;3510;43.200;27.920;2023-08-20T07:11:25;101010.31;;;34.56;31.87
6942;BME280;3510;43.200;27.920;2023-08-20T07:13:55;101009.72;;;35.04;31.41
6942;BME280;3510;43.200;27.920;2023-08-20T07:16:21;100940.94;;;34.92;30.78
6942;BME280;3510;43.200;27.920;2023-08-20T07:18:48;100985.16;;;35.15;30.31
6942;BME280;3510;43.200;27.920;2023-08-20T07:21:16;101001.97;;;34.93;30.47
6942;BME280;3510;43.200;27.920;2023-08-20T07:23:42;100983.31;;;35.19;29.74
6942;BME280;3510;43.200;27.920;2023-08-20T07:26:11;100991.38;;;35.07;29.86
6942;BME280;3510;43.200;27.920;2023-08-20T07:28:38;100992.81;;;35.26;29.88
6942;BME280;3510;43.200;27.920;2023-08-20T07:31:18;101002.97;;;35.49;29.66
6942;BME280;3510;43.200;27.920;2023-08-20T07:33:46;100997.94;;;35.35;29.68
6942;BME280;3510;43.200;27.920;2023-08-20T07:36:23;100978.81;;;35.30;29.68
6942;BME280;3510;43.200;27.920;2023-08-20T07:38:51;100987.75;;;35.73;29.46
6942;BME280;3510;43.200;27.920;2023-08-20T07:41:18;100981.53;;;36.28;28.52
6942;BME280;3510;43.200;27.920;2023-08-20T07:43:46;100991.56;;;36.06;29.11
6942;BME280;3510;43.200;27.920;2023-08-20T07:46:14;100966.72;;;36.25;28.32
6942;BME280;3510;43.200;27.920;2023-08-20T07:48:41;100989.25;;;36.34;28.53
6942;BME280;3510;43.200;27.920;2023-08-20T07:51:08;101003.63;;;36.16;28.72
6942;BME280;3510;43.200;27.920;2023-08-20T07:53:37;100978.63;;;36.85;28.46
6942;BME280;3510;43.200;27.920;2023-08-20T07:56:04;100995.88;;;36.56;27.72
6942;BME280;3510;43.200;27.920;2023-08-20T07:58:30;100984.94;;;36.75;28.25
6942;BME280;3510;43.200;27.920;2023-08-20T08:00:57;100972.72;;;37.16;27.58
6942;BME280;3510;43.200;27.920;2023-08-20T08:03:24;100991.28;;;37.45;27.81
6942;BME280;3510;43.200;27.920;2023-08-20T08:05:52;100972.19;;;37.01;27.63
6942;BME280;3510;43.200;27.920;2023-08-20T08:08:19;100984.28;;;37.07;28.51
6942;BME280;3510;43.200;27.920;2023-08-20T08:10:48;100986.81;;;36.71;28.57
6942;BME280;3510;43.200;27.920;2023-08-20T08:13:17;101011.06;;;36.82;28.62
6942;BME280;3510;43.200;27.920;2023-08-20T08:15:44;100975.34;;;36.75;28.34
6942;BME280;3510;43.200;27.920;2023-08-20T08:18:11;100959.13;;;37.34;28.44
6942;BME280;3510;43.200;27.920;2023-08-20T08:20:38;100978.47;;;37.30;27.93
6942;BME280;3510;43.200;27.920;2023-08-20T08:23:05;100954.78;;;36.97;28.08
6942;BME280;3510;43.200;27.920;2023-08-20T08:25:31;100977.81;;;36.81;28.35
6942;BME280;3510;43.200;27.920;2023-08-20T08:28:00;100949.34;;;36.63;28.53
6942;BME280;3510;43.200;27.920;2023-08-20T08:30:27;100974.38;;;37.20;27.95
6942;BME280;3510;43.200;27.920;2023-08-20T08:32:55;100966.19;;;37.32;28.23
6942;BME280;3510;43.200;27.920;2023-08-20T08:35:23;100974.97;;;37.67;27.35
6942;BME280;3510;43.200;27.920;2023-08-20T08:37:50;100982.63;;;37.03;28.77
6942;BME280;3510;43.200;27.920;2023-08-20T08:40:17;100964.47;;;37.67;27.04
6942;BME280;3510;43.200;27.920;2023-08-20T08:42:47;100953.00;;;37.35;27.54
6942;BME280;3510;43.200;27.920;2023-08-20T08:45:18;100966.47;;;37.57;27.52
6942;BME280;3510;43.200;27.920;2023-08-20T08:47:45;100983.84;;;37.97;26.44
6942;BME280;3510;43.200;27.920;2023-08-20T08:50:13;100941.34;;;37.47;27.26
6942;BME280;3510;43.200;27.920;2023-08-20T08:52:41;100978.44;;;38.03;27.08
6942;BME280;3510;43.200;27.920;2023-08-20T08:55:08;100974.41;;;37.90;26.30
6942;BME280;3510;43.200;27.920;2023-08-20T08:57:35;100977.97;;;37.87;29.91
6942;BME280;3510;43.200;27.920;2023-08-20T09:00:02;100961.50;;;37.46;33.17
6942;BME280;3510;43.200;27.920;2023-08-20T09:02:31;100968.94;;;37.26;31.59
6942;BME280;3510;43.200;27.920;2023-08-20T09:04:58;100955.13;;;35.36;36.82
6942;BME280;3510;43.200;27.920;2023-08-20T09:07:28;100960.88;;;36.11;35.53
6942;BME280;3510;43.200;27.920;2023-08-20T09:09:58;100960.13;;;36.04;36.41
6942;BME280;3510;43.200;27.920;2023-08-20T09:12:26;100982.50;;;35.73;39.73
6942;BME280;3510;43.200;27.920;2023-08-20T09:14:53;100951.84;;;35.79;40.73
6942;BME280;3510;43.200;27.920;2023-08-20T09:17:28;100972.47;;;36.44;40.39
6942;BME280;3510;43.200;27.920;2023-08-20T09:19:57;100956.53;;;36.10;41.94
6942;BME280;3510;43.200;27.920;2023-08-20T09:22:24;100968.06;;;36.01;41.71
6942;BME280;3510;43.200;27.920;2023-08-20T09:24:53;100969.59;;;35.62;42.36
6942;BME280;3510;43.200;27.920;2023-08-20T09:27:21;100968.78;;;35.60;42.99
6942;BME280;3510;43.200;27.920;2023-08-20T09:29:49;100945.66;;;35.83;42.84
6942;BME280;3510;43.200;27.920;2023-08-20T09:32:24;100963.91;;;35.34;44.11
6942;BME280;3510;43.200;27.920;2023-08-20T09:34:53;100956.94;;;35.85;43.43
6942;BME280;3510;43.200;27.920;2023-08-20T09:37:22;100921.06;;;35.39;43.80
6942;BME280;3510;43.200;27.920;2023-08-20T09:39:50;100964.84;;;35.84;43.32
6942;BME280;3510;43.200;27.920;2023-08-20T09:42:17;100960.94;;;35.58;43.66
6942;BME280;3510;43.200;27.920;2023-08-20T09:44:45;100964.81;;;35.87;42.13
6942;BME280;3510;43.200;27.920;2023-08-20T09:47:16;100963.81;;;35.42;41.86
6942;BME280;3510;43.200;27.920;2023-08-20T09:49:45;100962.50;;;35.69;41.77
6942;BME280;3510;43.200;27.920;2023-08-20T09:52:15;100951.41;;;35.54;43.51
6942;BME280;3510;43.200;27.920;2023-08-20T09:54:51;100922.22;;;35.22;42.36
6942;BME280;3510;43.200;27.920;2023-08-20T09:57:27;100941.59;;;35.10;42.44
6942;BME280;3510;43.200;27.920;2023-08-20T09:59:58;100960.78;;;35.12;43.54
6942;BME280;3510;43.200;27.920;2023-08-20T10:02:26;100957.34;;;35.07;42.22
6942;BME280;3510;43.200;27.920;2023-08-20T10:04:53;100923.84;;;34.67;43.39
6942;BME280;3510;43.200;27.920;2023-08-20T10:07:20;100934.75;;;35.00;44.48
6942;BME280;3510;43.200;27.920;2023-08-20T10:10:06;100958.97;;;35.14;45.11
6942;BME280;3510;43.200;27.920;2023-08-20T10:12:33;100961.75;;;35.05;46.98
6942;BME280;3510;43.200;27.920;2023-08-20T10:15:02;100974.09;;;34.92;46.43
6942;BME280;3510;43.200;27.920;2023-08-20T10:17:29;100971.75;;;34.72;45.88
6942;BME280;3510;43.200;27.920;2023-08-20T10:19:58;100967.22;;;34.86;45.23
6942;BME280;3510;43.200;27.920;2023-08-20T10:22:32;100921.44;;;34.52;45.00
6942;BME280;3510;43.200;27.920;2023-08-20T10:24:59;100975.88;;;34.88;44.80
6942;BME280;3510;43.200;27.920;2023-08-20T10:27:31;100982.56;;;35.12;45.52
6942;BME280;3510;43.200;27.920;2023-08-20T10:29:59;100967.19;;;34.89;45.53
6942;BME280;3510;43.200;27.920;2023-08-20T10:32:44;100976.63;;;35.00;46.27
6942;BME280;3510;43.200;27.920;2023-08-20T10:35:12;100948.13;;;34.78;47.01
6942;BME280;3510;43.200;27.920;2023-08-20T10:38:00;100967.34;;;34.74;46.21
6942;BME280;3510;43.200;27.920;2023-08-20T10:40:51;100970.69;;;34.85;45.88
6942;BME280;3510;43.200;27.920;2023-08-20T10:43:32;100966.50;;;34.75;45.81
6942;BME280;3510;43.200;27.920;2023-08-20T10:46:04;100974.31;;;34.77;44.16
6942;BME280;3510;43.200;27.920;2023-08-20T10:48:32;100961.13;;;34.84;44.28
6942;BME280;3510;43.200;27.920;2023-08-20T10:51:13;100960.22;;;34.85;43.71
6942;BME280;3510;43.200;27.920;2023-08-20T10:53:41;100967.47;;;34.68;43.73
6942;BME280;3510;43.200;27.920;2023-08-20T10:56:13;100933.72;;;34.45;43.75
6942;BME280;3510;43.200;27.920;2023-08-20T10:59:05;100937.81;;;34.66;45.34
6942;BME280;3510;43.200;27.920;2023-08-20T11:01:32;100950.81;;;34.74;46.67
6942;BME280;3510;43.200;27.920;2023-08-20T11:04:00;100920.63;;;34.50;47.39
6942;BME280;3510;43.200;27.920;2023-08-20T11:06:43;100974.31;;;34.77;47.30
6942;BME280;3510;43.200;27.920;2023-08-20T11:09:25;100930.31;;;34.37;47.17
6942;BME280;3510;43.200;27.920;2023-08-20T11:12:08;100982.06;;;34.84;46.84
6942;BME280;3510;43.200;27.920;2023-08-20T11:14:41;100978.06;;;34.56;47.62
6942;BME280;3510;43.200;27.920;2023-08-20T11:17:24;100971.16;;;35.17;46.13
6942;BME280;3510;43.200;27.920;2023-08-20T11:20:06;100967.06;;;34.96;46.70
6942;BME280;3510;43.200;27.920;2023-08-20T11:22:49;100943.53;;;34.96;46.50
6942;BME280;3510;43.200;27.920;2023-08-20T11:39:30;100893.38;;;34.66;43.80
6942;BME280;3510;43.200;27.920;2023-08-20T11:41:57;100966.13;;;35.04;42.87
6942;BME280;3510;43.200;27.920;2023-08-20T11:44:24;100968.00;;;35.52;42.95
6942;BME280;3510;43.200;27.920;2023-08-20T11:46:53;100970.59;;;35.55;42.29
6942;BME280;3510;43.200;27.920;2023-08-20T11:49:27;100955.06;;;35.43;42.30
6942;BME280;3510;43.200;27.920;2023-08-20T11:52:02;100947.44;;;35.27;42.34
6942;BME280;3510;43.200;27.920;2023-08-20T11:54:47;100968.06;;;35.47;40.02
6942;BME280;3510;43.200;27.920;2023-08-20T11:57:17;100956.59;;;35.57;39.77
6942;BME280;3510;43.200;27.920;2023-08-20T11:59:46;100967.06;;;35.57;39.29
6942;BME280;3510;43.200;27.920;2023-08-20T12:02:13;100956.41;;;35.68;39.08
6942;BME280;3510;43.200;27.920;2023-08-20T12:04:56;100936.31;;;35.67;39.73
6942;BME280;3510;43.200;27.920;2023-08-20T12:07:25;100956.78;;;35.95;38.91
6942;BME280;3510;43.200;27.920;2023-08-20T12:10:19;100952.91;;;37.38;35.55
6942;BME280;3510;43.200;27.920;2023-08-20T12:12:57;100953.03;;;38.94;32.89
6942;BME280;3510;43.200;27.920;2023-08-20T12:15:26;100938.16;;;40.46;30.39
6942;BME280;3510;43.200;27.920;2023-08-20T12:17:57;100894.72;;;40.77;28.80
6942;BME280;3510;43.200;27.920;2023-08-20T12:20:27;100920.31;;;41.19;28.98
6942;BME280;3510;43.200;27.920;2023-08-20T12:23:00;100960.13;;;41.58;29.08
6942;BME280;3510;43.200;27.920;2023-08-20T12:25:32;100953.91;;;42.77;28.13
6942;BME280;3510;43.200;27.920;2023-08-20T12:28:01;100955.75;;;42.37;27.28
6942;BME280;3510;43.200;27.920;2023-08-20T12:30:28;100949.78;;;42.89;26.56
6942;BME280;3510;43.200;27.920;2023-08-20T12:32:55;100919.66;;;42.16;26.60
6942;BME280;3510;43.200;27.920;2023-08-20T12:35:22;100967.03;;;42.60;26.98
6942;BME280;3510;43.200;27.920;2023-08-20T12:37:50;100962.56;;;42.22;28.71
6942;BME280;3510;43.200;27.920;2023-08-20T12:40:17;100969.97;;;39.93;30.13
6942;BME280;3510;43.200;27.920;2023-08-20T12:42:45;100909.84;;;38.11;33.47
6942;BME280;3510;43.200;27.920;2023-08-20T12:45:20;100932.41;;;37.87;34.86
6942;BME280;3510;43.200;27.920;2023-08-20T12:47:50;100926.50;;;37.09;35.32
6942;BME280;3510;43.200;27.920;2023-08-20T12:50:17;100939.13;;;36.90;35.44
6942;BME280;3510;43.200;27.920;2023-08-20T12:52:44;100926.91;;;36.89;35.72
6942;BME280;3510;43.200;27.920;2023-08-20T12:55:12;100930.28;;;36.56;36.99
6942;BME280;3510;43.200;27.920;2023-08-20T12:57:53;100961.47;;;36.27;37.27
6942;BME280;3510;43.200;27.920;2023-08-20T13:00:21;100963.34;;;36.20;38.62
6942;BME280;3510;43.200;27.920;2023-08-20T13:02:50;100948.53;;;36.18;39.40
6942;BME280;3510;43.200;27.920;2023-08-20T13:05:18;100955.50;;;35.69;39.16
6942;BME280;3510;43.200;27.920;2023-08-20T13:07:56;100948.88;;;35.99;38.70
6942;BME280;3510;43.200;27.920;2023-08-20T13:10:37;100947.06;;;36.48;38.69
6942;BME280;3510;43.200;27.920;2023-08-20T13:13:09;100953.00;;;36.11;40.49
6942;BME280;3510;43.200;27.920;2023-08-20T13:15:37;100934.59;;;36.16;39.36
6942;BME280;3510;43.200;27.920;2023-08-20T13:18:05;100947.06;;;36.48;39.37
6942;BME280;3510;43.200;27.920;2023-08-20T13:20:34;100942.78;;;36.42;40.00
6942;BME280;3510;43.200;27.920;2023-08-20T13:23:08;100946.16;;;36.49;39.26
6942;BME280;3510;43.200;27.920;2023-08-20T13:25:35;100929.56;;;36.03;40.20
6942;BME280;3510;43.200;27.920;2023-08-20T13:28:08;100945.50;;;35.90;40.75
6942;BME280;3510;43.200;27.920;2023-08-20T13:30:38;100945.34;;;36.00;40.98
6942;BME280;3510;43.200;27.920;2023-08-20T13:33:05;100935.34;;;35.73;41.58
6942;BME280;3510;43.200;27.920;2023-08-20T13:35:32;100925.16;;;34.99;42.00
6942;BME280;3510;43.200;27.920;2023-08-20T13:38:00;100916.94;;;35.25;43.18
6942;BME280;3510;43.200;27.920;2023-08-20T13:40:31;100881.06;;;35.31;42.85
6942;BME280;3510;43.200;27.920;2023-08-20T13:42:58;100938.50;;;35.40;41.48
6942;BME280;3510;43.200;27.920;2023-08-20T13:45:26;100936.41;;;35.62;42.02
6942;BME280;3510;43.200;27.920;2023-08-20T13:47:53;100946.25;;;36.01;41.21
6942;BME280;3510;43.200;27.920;2023-08-20T13:50:21;100939.09;;;36.09;40.67
6942;BME280;3510;43.200;27.920;2023-08-20T13:52:48;100940.69;;;36.16;41.49
6942;BME280;3510;43.200;27.920;2023-08-20T13:55:28;100919.94;;;36.05;40.47
6942;BME280;3510;43.200;27.920;2023-08-20T13:57:56;100935.78;;;35.96;41.56
6942;BME280;3510;43.200;27.920;2023-08-20T14:00:24;100935.78;;;35.98;41.41
6942;BME280;3510;43.200;27.920;2023-08-20T14:02:52;100945.56;;;35.88;41.59
6942;BME280;3510;43.200;27.920;2023-08-20T14:05:19;100932.50;;;35.85;41.25
6942;BME280;3510;43.200;27.920;2023-08-20T14:07:45;100917.84;;;35.76;42.08
6942;BME280;3510;43.200;27.920;2023-08-20T14:10:13;100943.94;;;35.81;42.12
6942;BME280;3510;43.200;27.920;2023-08-20T14:12:39;100939.03;;;36.12;41.85
6942;BME280;3510;43.200;27.920;2023-08-20T14:15:07;100913.31;;;36.29;42.31
6942;BME280;3510;43.200;27.920;2023-08-20T14:17:34;100936.06;;;36.29;42.17
6942;BME280;3510;43.200;27.920;2023-08-20T14:20:02;100932.72;;;36.21;41.10
6942;BME280;3510;43.200;27.920;2023-08-20T14:22:32;100928.75;;;36.85;40.83
6942;BME280;3510;43.200;27.920;2023-08-20T14:24:59;100937.34;;;37.30;40.17
6942;BME280;3510;43.200;27.920;2023-08-20T14:27:26;100925.06;;;38.01;37.48
6942;BME280;3510;43.200;27.920;2023-08-20T14:29:53;100934.63;;;38.94;36.96
6942;BME280;3510;43.200;27.920;2023-08-20T14:32:21;100935.06;;;39.60;35.08
6942;BME280;3510;43.200;27.920;2023-08-20T14:34:47;100928.47;;;39.98;34.70
6942;BME280;3510;43.200;27.920;2023-08-20T14:37:21;100940.81;;;40.90;32.37
6942;BME280;3510;43.200;27.920;2023-08-20T14:39:49;100928.69;;;40.86;32.80